sensor_id;sensor_type;location;lat;lon;timestamp;P1;durP1;ratioP1;P2;durP2;ratioP2
15096;SDS011;7649;52.084;7.478;2024-01-06T00:01:25;12.50;;;10.77;;
15096;SDS011;7649;52.084;7.478;2024-01-06T00:03:54;11.73;;;10.53;;
15096;SDS011;7649;52.084;7.478;2024-01-06T00:06:23;12.43;;;10.67;;
15096;SDS011;7649;52.084;7.478;2024-01-06T00:08:52;12.47;;;10.80;;
15096;SDS011;7649;52.084;7.478;2024-01-06T00:11:23;12.20;;;10.83;;
15096;SDS011;7649;52.084;7.478;2024-01-06T00:13:51;13.10;;;11.07;;
15096;SDS011;7649;52.084;7.478;2024-01-06T00:16:19;11.47;;;10.17;;
15096;SDS011;7649;52.084;7.478;2024-01-06T00:18:50;12.93;;;10.77;;
15096;SDS011;7649;52.084;7.478;2024-01-06T00:21:19;11.77;;;10.53;;
15096;SDS011;7649;52.084;7.478;2024-01-06T00:23:47;12.80;;;10.53;;
15096;SDS011;7649;52.084;7.478;2024-01-06T00:26:16;12.00;;;10.47;;
15096;SDS011;7649;52.084;7.478;2024-01-06T00:28:46;13.80;;;11.37;;
15096;SDS011;7649;52.084;7.478;2024-01-06T00:31:15;12.10;;;10.67;;
15096;SDS011;7649;52.084;7.478;2024-01-06T00:33:43;13.27;;;11.10;;
15096;SDS011;7649;52.084;7.478;2024-01-06T00:36:12;12.50;;;10.67;;
15096;SDS011;7649;52.084;7.478;2024-01-06T00:38:40;13.87;;;11.37;;
15096;SDS011;7649;52.084;7.478;2024-01-06T00:41:09;13.57;;;11.20;;
15096;SDS011;7649;52.084;7.478;2024-01-06T00:43:37;13.37;;;11.53;;
15096;SDS011;7649;52.084;7.478;2024-01-06T00:46:07;13.23;;;11.40;;
15096;SDS011;7649;52.084;7.478;2024-01-06T00:48:36;13.97;;;12.00;;
15096;SDS011;7649;52.084;7.478;2024-01-06T00:51:06;15.70;;;12.40;;
15096;SDS011;7649;52.084;7.478;2024-01-06T00:53:34;15.40;;;12.37;;
15096;SDS011;7649;52.084;7.478;2024-01-06T00:56:03;16.13;;;12.43;;
15096;SDS011;7649;52.084;7.478;2024-01-06T00:58:32;15.30;;;12.17;;
15096;SDS011;7649;52.084;7.478;2024-01-06T01:01:00;15.23;;;12.07;;
15096;SDS011;7649;52.084;7.478;2024-01-06T01:03:31;16.43;;;13.47;;
15096;SDS011;7649;52.084;7.478;2024-01-06T01:06:00;15.07;;;12.67;;
15096;SDS011;7649;52.084;7.478;2024-01-06T01:08:29;17.73;;;14.00;;
15096;SDS011;7649;52.084;7.478;2024-01-06T01:10:58;20.57;;;15.33;;
15096;SDS011;7649;52.084;7.478;2024-01-06T01:13:27;20.10;;;15.30;;
15096;SDS011;7649;52.084;7.478;2024-01-06T01:15:56;22.53;;;16.30;;
15096;SDS011;7649;52.084;7.478;2024-01-06T01:18:24;22.30;;;16.50;;
15096;SDS011;7649;52.084;7.478;2024-01-06T01:20:55;22.57;;;16.30;;
15096;SDS011;7649;52.084;7.478;2024-01-06T01:23:24;19.73;;;14.80;;
15096;SDS011;7649;52.084;7.478;2024-01-06T01:25:53;20.10;;;13.93;;
15096;SDS011;7649;52.084;7.478;2024-01-06T01:28:21;15.90;;;12.90;;
15096;SDS011;7649;52.084;7.478;2024-01-06T01:30:50;14.53;;;11.70;;
15096;SDS011;7649;52.084;7.478;2024-01-06T01:33:19;14.47;;;11.63;;
15096;SDS011;7649;52.084;7.478;2024-01-06T01:35:48;13.00;;;10.63;;
15096;SDS011;7649;52.084;7.478;2024-01-06T01:38:18;13.90;;;11.30;;
15096;SDS011;7649;52.084;7.478;2024-01-06T01:40:47;14.10;;;10.70;;
15096;SDS011;7649;52.084;7.478;2024-01-06T01:43:16;13.43;;;10.53;;
15096;SDS011;7649;52.084;7.478;2024-01-06T01:45:45;14.20;;;11.27;;
15096;SDS011;7649;52.084;7.478;2024-01-06T01:48:16;14.80;;;10.90;;
15096;SDS011;7649;52.084;7.478;2024-01-06T01:50:45;11.70;;;9.90;;
15096;SDS011;7649;52.084;7.478;2024-01-06T01:53:14;14.23;;;11.20;;
15096;SDS011;7649;52.084;7.478;2024-01-06T01:55:44;13.63;;;10.73;;
15096;SDS011;7649;52.084;7.478;2024-01-06T01:58:13;12.77;;;10.67;;
15096;SDS011;7649;52.084;7.478;2024-01-06T02:00:42;14.30;;;10.73;;
15096;SDS011;7649;52.084;7.478;2024-01-06T02:03:10;13.23;;;10.17;;
15096;SDS011;7649;52.084;7.478;2024-01-06T02:05:41;13.33;;;10.20;;
15096;SDS011;7649;52.084;7.478;2024-01-06T02:08:10;12.03;;;10.30;;
15096;SDS011;7649;52.084;7.478;2024-01-06T02:10:38;13.30;;;10.27;;
15096;SDS011;7649;52.084;7.478;2024-01-06T02:13:13;16.63;;;10.73;;
15096;SDS011;7649;52.084;7.478;2024-01-06T02:15:41;14.30;;;10.63;;
15096;SDS011;7649;52.084;7.478;2024-01-06T02:18:10;13.33;;;11.30;;
15096;SDS011;7649;52.084;7.478;2024-01-06T02:20:38;15.03;;;11.37;;
15096;SDS011;7649;52.084;7.478;2024-01-06T02:23:11;16.27;;;11.03;;
15096;SDS011;7649;52.084;7.478;2024-01-06T02:25:40;14.87;;;10.60;;
15096;SDS011;7649;52.084;7.478;2024-01-06T02:28:08;15.07;;;10.80;;
15096;SDS011;7649;52.084;7.478;2024-01-06T02:30:37;15.00;;;10.73;;
15096;SDS011;7649;52.084;7.478;2024-01-06T02:33:06;14.70;;;10.97;;
15096;SDS011;7649;52.084;7.478;2024-01-06T02:35:35;17.60;;;12.43;;
15096;SDS011;7649;52.084;7.478;2024-01-06T02:38:04;14.70;;;11.97;;
15096;SDS011;7649;52.084;7.478;2024-01-06T02:40:34;14.30;;;11.47;;
15096;SDS011;7649;52.084;7.478;2024-01-06T02:43:02;12.03;;;10.60;;
15096;SDS011;7649;52.084;7.478;2024-01-06T02:45:31;14.23;;;11.40;;
15096;SDS011;7649;52.084;7.478;2024-01-06T02:48:00;16.07;;;10.60;;
15096;SDS011;7649;52.084;7.478;2024-01-06T02:50:28;12.10;;;10.50;;
15096;SDS011;7649;52.084;7.478;2024-01-06T02:52:57;13.73;;;10.50;;
15096;SDS011;7649;52.084;7.478;2024-01-06T02:55:25;12.33;;;10.87;;
15096;SDS011;7649;52.084;7.478;2024-01-06T02:57:55;13.80;;;11.73;;
15096;SDS011;7649;52.084;7.478;2024-01-06T03:00:24;13.13;;;11.37;;
15096;SDS011;7649;52.084;7.478;2024-01-06T03:02:53;13.97;;;12.23;;
15096;SDS011;7649;52.084;7.478;2024-01-06T03:05:21;14.27;;;12.60;;
15096;SDS011;7649;52.084;7.478;2024-01-06T03:07:50;15.50;;;12.23;;
15096;SDS011;7649;52.084;7.478;2024-01-06T03:10:18;15.23;;;13.13;;
15096;SDS011;7649;52.084;7.478;2024-01-06T03:12:47;13.20;;;11.43;;
15096;SDS011;7649;52.084;7.478;2024-01-06T03:15:17;15.20;;;12.17;;
15096;SDS011;7649;52.084;7.478;2024-01-06T03:17:46;13.67;;;11.53;;
15096;SDS011;7649;52.084;7.478;2024-01-06T03:20:14;13.13;;;11.63;;
15096;SDS011;7649;52.084;7.478;2024-01-06T03:22:43;13.53;;;11.47;;
15096;SDS011;7649;52.084;7.478;2024-01-06T03:25:12;11.10;;;9.90;;
15096;SDS011;7649;52.084;7.478;2024-01-06T03:27:40;11.03;;;8.70;;
15096;SDS011;7649;52.084;7.478;2024-01-06T03:30:10;11.17;;;9.43;;
15096;SDS011;7649;52.084;7.478;2024-01-06T03:32:40;13.13;;;9.00;;
15096;SDS011;7649;52.084;7.478;2024-01-06T03:35:09;11.50;;;9.00;;
15096;SDS011;7649;52.084;7.478;2024-01-06T03:37:37;10.73;;;8.77;;
15096;SDS011;7649;52.084;7.478;2024-01-06T03:40:06;10.40;;;8.77;;
15096;SDS011;7649;52.084;7.478;2024-01-06T03:42:35;10.47;;;8.50;;
15096;SDS011;7649;52.084;7.478;2024-01-06T03:45:04;10.67;;;8.93;;
15096;SDS011;7649;52.084;7.478;2024-01-06T03:47:33;9.67;;;8.10;;
15096;SDS011;7649;52.084;7.478;2024-01-06T03:50:03;10.17;;;8.20;;
15096;SDS011;7649;52.084;7.478;2024-01-06T03:52:32;11.10;;;9.13;;
15096;SDS011;7649;52.084;7.478;2024-01-06T03:55:00;11.80;;;8.90;;
15096;SDS011;7649;52.084;7.478;2024-01-06T03:57:30;10.83;;;8.63;;
15096;SDS011;7649;52.084;7.478;2024-01-06T03:59:59;11.57;;;8.73;;
15096;SDS011;7649;52.084;7.478;2024-01-06T04:02:27;11.87;;;9.30;;
15096;SDS011;7649;52.084;7.478;2024-01-06T04:04:55;12.77;;;9.67;;
15096;SDS011;7649;52.084;7.478;2024-01-06T04:07:25;12.73;;;10.37;;
15096;SDS011;7649;52.084;7.478;2024-01-06T04:09:54;15.27;;;11.13;;
15096;SDS011;7649;52.084;7.478;2024-01-06T04:12:22;14.47;;;11.00;;
15096;SDS011;7649;52.084;7.478;2024-01-06T04:14:51;15.10;;;11.87;;
15096;SDS011;7649;52.084;7.478;2024-01-06T04:17:19;16.73;;;11.70;;
15096;SDS011;7649;52.084;7.478;2024-01-06T04:19:48;16.83;;;12.20;;
15096;SDS011;7649;52.084;7.478;2024-01-06T04:22:17;16.33;;;12.33;;
15096;SDS011;7649;52.084;7.478;2024-01-06T04:24:47;15.60;;;12.77;;
15096;SDS011;7649;52.084;7.478;2024-01-06T04:27:15;14.20;;;10.73;;
15096;SDS011;7649;52.084;7.478;2024-01-06T04:29:44;14.63;;;10.93;;
15096;SDS011;7649;52.084;7.478;2024-01-06T04:32:13;15.00;;;11.20;;
15096;SDS011;7649;52.084;7.478;2024-01-06T04:34:41;14.67;;;11.57;;
15096;SDS011;7649;52.084;7.478;2024-01-06T04:37:10;18.60;;;12.07;;
15096;SDS011;7649;52.084;7.478;2024-01-06T04:39:38;18.67;;;13.10;;
15096;SDS011;7649;52.084;7.478;2024-01-06T04:42:09;16.77;;;12.00;;
15096;SDS011;7649;52.084;7.478;2024-01-06T04:44:37;15.80;;;12.17;;
15096;SDS011;7649;52.084;7.478;2024-01-06T04:47:06;13.63;;;9.67;;
15096;SDS011;7649;52.084;7.478;2024-01-06T04:49:34;13.27;;;10.40;;
15096;SDS011;7649;52.084;7.478;2024-01-06T04:52:04;12.43;;;9.37;;
15096;SDS011;7649;52.084;7.478;2024-01-06T04:54:32;12.27;;;9.03;;
15096;SDS011;7649;52.084;7.478;2024-01-06T04:57:01;10.27;;;8.57;;
15096;SDS011;7649;52.084;7.478;2024-01-06T04:59:31;11.70;;;8.17;;
15096;SDS011;7649;52.084;7.478;2024-01-06T05:02:00;11.10;;;8.33;;
15096;SDS011;7649;52.084;7.478;2024-01-06T05:04:29;11.83;;;8.37;;
15096;SDS011;7649;52.084;7.478;2024-01-06T05:06:59;9.27;;;8.20;;
15096;SDS011;7649;52.084;7.478;2024-01-06T05:09:27;11.97;;;8.20;;
15096;SDS011;7649;52.084;7.478;2024-01-06T05:11:56;11.13;;;8.20;;
15096;SDS011;7649;52.084;7.478;2024-01-06T05:14:24;10.03;;;8.17;;
15096;SDS011;7649;52.084;7.478;2024-01-06T05:16:55;12.17;;;7.97;;
15096;SDS011;7649;52.084;7.478;2024-01-06T05:19:23;12.40;;;9.30;;
15096;SDS011;7649;52.084;7.478;2024-01-06T05:21:52;12.83;;;8.53;;
15096;SDS011;7649;52.084;7.478;2024-01-06T05:24:20;13.90;;;8.73;;
15096;SDS011;7649;52.084;7.478;2024-01-06T05:26:49;12.50;;;8.57;;
15096;SDS011;7649;52.084;7.478;2024-01-06T05:29:18;10.63;;;8.00;;
15096;SDS011;7649;52.084;7.478;2024-01-06T05:31:46;12.33;;;8.27;;
15096;SDS011;7649;52.084;7.478;2024-01-06T05:34:17;14.03;;;9.07;;
15096;SDS011;7649;52.084;7.478;2024-01-06T05:36:46;11.10;;;8.47;;
15096;SDS011;7649;52.084;7.478;2024-01-06T05:39:14;12.67;;;8.87;;
15096;SDS011;7649;52.084;7.478;2024-01-06T05:41:43;15.87;;;9.70;;
15096;SDS011;7649;52.084;7.478;2024-01-06T05:44:12;11.17;;;9.53;;
15096;SDS011;7649;52.084;7.478;2024-01-06T05:46:40;15.30;;;10.40;;
15096;SDS011;7649;52.084;7.478;2024-01-06T05:49:09;13.77;;;10.20;;
15096;SDS011;7649;52.084;7.478;2024-01-06T05:51:45;12.30;;;10.07;;
15096;SDS011;7649;52.084;7.478;2024-01-06T05:54:13;12.77;;;9.93;;
15096;SDS011;7649;52.084;7.478;2024-01-06T05:56:42;14.00;;;10.57;;
15096;SDS011;7649;52.084;7.478;2024-01-06T05:59:11;11.97;;;10.70;;
15096;SDS011;7649;52.084;7.478;2024-01-06T06:01:39;12.93;;;10.50;;
15096;SDS011;7649;52.084;7.478;2024-01-06T06:04:08;13.83;;;11.57;;
15096;SDS011;7649;52.084;7.478;2024-01-06T06:06:36;13.73;;;10.63;;
15096;SDS011;7649;52.084;7.478;2024-01-06T06:09:06;14.37;;;11.60;;
15096;SDS011;7649;52.084;7.478;2024-01-06T06:11:36;14.80;;;10.90;;
15096;SDS011;7649;52.084;7.478;2024-01-06T06:14:05;13.10;;;10.30;;
15096;SDS011;7649;52.084;7.478;2024-01-06T06:16:33;13.47;;;10.43;;
15096;SDS011;7649;52.084;7.478;2024-01-06T06:19:01;13.40;;;10.47;;
15096;SDS011;7649;52.084;7.478;2024-01-06T06:21:31;17.37;;;11.90;;
15096;SDS011;7649;52.084;7.478;2024-01-06T06:24:00;15.63;;;11.00;;
15096;SDS011;7649;52.084;7.478;2024-01-06T06:26:30;16.20;;;11.33;;
15096;SDS011;7649;52.084;7.478;2024-01-06T06:28:59;16.27;;;11.80;;
15096;SDS011;7649;52.084;7.478;2024-01-06T06:31:27;16.33;;;12.53;;
15096;SDS011;7649;52.084;7.478;2024-01-06T06:33:56;14.60;;;12.27;;
15096;SDS011;7649;52.084;7.478;2024-01-06T06:36:25;16.17;;;12.43;;
15096;SDS011;7649;52.084;7.478;2024-01-06T06:38:53;17.77;;;12.63;;
15096;SDS011;7649;52.084;7.478;2024-01-06T06:41:24;17.60;;;12.97;;
15096;SDS011;7649;52.084;7.478;2024-01-06T06:43:54;14.67;;;11.37;;
15096;SDS011;7649;52.084;7.478;2024-01-06T06:46:22;14.37;;;11.10;;
15096;SDS011;7649;52.084;7.478;2024-01-06T06:48:51;15.67;;;11.73;;
15096;SDS011;7649;52.084;7.478;2024-01-06T06:51:19;14.73;;;11.00;;
15096;SDS011;7649;52.084;7.478;2024-01-06T06:53:51;18.87;;;11.13;;
15096;SDS011;7649;52.084;7.478;2024-01-06T06:56:19;15.37;;;10.03;;
15096;SDS011;7649;52.084;7.478;2024-01-06T06:58:48;16.03;;;11.57;;
15096;SDS011;7649;52.084;7.478;2024-01-06T07:01:18;14.03;;;10.63;;
15096;SDS011;7649;52.084;7.478;2024-01-06T07:03:47;12.97;;;10.60;;
15096;SDS011;7649;52.084;7.478;2024-01-06T07:06:16;14.63;;;11.23;;
15096;SDS011;7649;52.084;7.478;2024-01-06T07:08:44;15.37;;;10.83;;
15096;SDS011;7649;52.084;7.478;2024-01-06T07:11:13;16.47;;;11.30;;
15096;SDS011;7649;52.084;7.478;2024-01-06T07:13:45;16.87;;;11.70;;
15096;SDS011;7649;52.084;7.478;2024-01-06T07:16:13;15.93;;;11.87;;
15096;SDS011;7649;52.084;7.478;2024-01-06T07:18:46;17.20;;;11.37;;
15096;SDS011;7649;52.084;7.478;2024-01-06T07:21:15;16.10;;;11.63;;
15096;SDS011;7649;52.084;7.478;2024-01-06T07:23:44;15.73;;;11.50;;
15096;SDS011;7649;52.084;7.478;2024-01-06T07:26:13;17.97;;;12.40;;
15096;SDS011;7649;52.084;7.478;2024-01-06T07:28:41;15.87;;;12.10;;
15096;SDS011;7649;52.084;7.478;2024-01-06T07:31:09;15.73;;;12.40;;
15096;SDS011;7649;52.084;7.478;2024-01-06T07:33:38;15.00;;;11.97;;
15096;SDS011;7649;52.084;7.478;2024-01-06T07:36:08;17.50;;;12.90;;
15096;SDS011;7649;52.084;7.478;2024-01-06T07:38:37;14.80;;;12.70;;
15096;SDS011;7649;52.084;7.478;2024-01-06T07:41:06;15.40;;;12.93;;
15096;SDS011;7649;52.084;7.478;2024-01-06T07:43:34;19.50;;;14.13;;
15096;SDS011;7649;52.084;7.478;2024-01-06T07:46:03;15.27;;;12.73;;
15096;SDS011;7649;52.084;7.478;2024-01-06T07:48:34;15.70;;;13.03;;
15096;SDS011;7649;52.084;7.478;2024-01-06T07:51:03;21.07;;;14.73;;
15096;SDS011;7649;52.084;7.478;2024-01-06T07:53:33;18.97;;;14.50;;
15096;SDS011;7649;52.084;7.478;2024-01-06T07:56:02;18.10;;;14.73;;
15096;SDS011;7649;52.084;7.478;2024-01-06T07:58:30;21.63;;;15.97;;
15096;SDS011;7649;52.084;7.478;2024-01-06T08:00:59;20.57;;;15.03;;
15096;SDS011;7649;52.084;7.478;2024-01-06T08:03:29;19.63;;;14.53;;
15096;SDS011;7649;52.084;7.478;2024-01-06T08:05:58;19.53;;;15.93;;
15096;SDS011;7649;52.084;7.478;2024-01-06T08:08:26;20.90;;;15.27;;
15096;SDS011;7649;52.084;7.478;2024-01-06T08:10:56;20.20;;;15.43;;
15096;SDS011;7649;52.084;7.478;2024-01-06T08:13:25;24.10;;;16.97;;
15096;SDS011;7649;52.084;7.478;2024-01-06T08:15:53;19.57;;;15.87;;
15096;SDS011;7649;52.084;7.478;2024-01-06T08:18:22;20.67;;;15.73;;
15096;SDS011;7649;52.084;7.478;2024-01-06T08:20:50;21.40;;;15.13;;
15096;SDS011;7649;52.084;7.478;2024-01-06T08:23:19;17.27;;;14.30;;
15096;SDS011;7649;52.084;7.478;2024-01-06T08:25:47;20.97;;;15.17;;
15096;SDS011;7649;52.084;7.478;2024-01-06T08:28:17;19.73;;;15.83;;
15096;SDS011;7649;52.084;7.478;2024-01-06T08:30:46;18.37;;;14.80;;
15096;SDS011;7649;52.084;7.478;2024-01-06T08:33:14;19.07;;;15.17;;
15096;SDS011;7649;52.084;7.478;2024-01-06T08:35:44;18.30;;;14.50;;
15096;SDS011;7649;52.084;7.478;2024-01-06T08:38:12;18.13;;;14.40;;
15096;SDS011;7649;52.084;7.478;2024-01-06T08:40:40;16.87;;;12.63;;
15096;SDS011;7649;52.084;7.478;2024-01-06T08:43:10;16.77;;;13.37;;
15096;SDS011;7649;52.084;7.478;2024-01-06T08:45:40;14.40;;;12.07;;
15096;SDS011;7649;52.084;7.478;2024-01-06T08:48:08;15.23;;;13.00;;
15096;SDS011;7649;52.084;7.478;2024-01-06T08:50:38;16.07;;;12.13;;
15096;SDS011;7649;52.084;7.478;2024-01-06T08:53:06;14.43;;;12.67;;
15096;SDS011;7649;52.084;7.478;2024-01-06T08:55:34;14.67;;;12.93;;
15096;SDS011;7649;52.084;7.478;2024-01-06T08:58:02;18.83;;;13.90;;
15096;SDS011;7649;52.084;7.478;2024-01-06T09:00:32;17.50;;;14.80;;
15096;SDS011;7649;52.084;7.478;2024-01-06T09:03:02;15.10;;;13.37;;
15096;SDS011;7649;52.084;7.478;2024-01-06T09:05:30;14.80;;;13.20;;
15096;SDS011;7649;52.084;7.478;2024-01-06T09:08:00;16.60;;;14.03;;
15096;SDS011;7649;52.084;7.478;2024-01-06T09:10:29;15.67;;;13.83;;
15096;SDS011;7649;52.084;7.478;2024-01-06T09:12:57;16.57;;;14.60;;
15096;SDS011;7649;52.084;7.478;2024-01-06T09:15:25;15.10;;;13.17;;
15096;SDS011;7649;52.084;7.478;2024-01-06T09:17:53;17.63;;;14.43;;
15096;SDS011;7649;52.084;7.478;2024-01-06T09:20:23;14.97;;;13.13;;
15096;SDS011;7649;52.084;7.478;2024-01-06T09:22:51;14.97;;;13.30;;
15096;SDS011;7649;52.084;7.478;2024-01-06T09:25:20;16.57;;;14.77;;
15096;SDS011;7649;52.084;7.478;2024-01-06T09:27:50;17.33;;;14.97;;
15096;SDS011;7649;52.084;7.478;2024-01-06T09:30:19;17.37;;;14.23;;
15096;SDS011;7649;52.084;7.478;2024-01-06T09:32:48;16.80;;;14.63;;
15096;SDS011;7649;52.084;7.478;2024-01-06T09:35:16;17.23;;;14.97;;
15096;SDS011;7649;52.084;7.478;2024-01-06T09:37:46;18.23;;;15.43;;
15096;SDS011;7649;52.084;7.478;2024-01-06T09:40:14;15.47;;;13.87;;
15096;SDS011;7649;52.084;7.478;2024-01-06T09:42:45;16.67;;;14.70;;
15096;SDS011;7649;52.084;7.478;2024-01-06T09:45:14;19.00;;;15.40;;
15096;SDS011;7649;52.084;7.478;2024-01-06T09:47:43;20.80;;;15.77;;
15096;SDS011;7649;52.084;7.478;2024-01-06T09:50:16;15.37;;;13.23;;
15096;SDS011;7649;52.084;7.478;2024-01-06T09:52:47;15.07;;;12.13;;
15096;SDS011;7649;52.084;7.478;2024-01-06T09:55:22;11.83;;;10.20;;
15096;SDS011;7649;52.084;7.478;2024-01-06T09:57:51;11.93;;;10.10;;
15096;SDS011;7649;52.084;7.478;2024-01-06T10:00:21;11.90;;;9.53;;
15096;SDS011;7649;52.084;7.478;2024-01-06T10:02:49;12.27;;;9.60;;
15096;SDS011;7649;52.084;7.478;2024-01-06T10:05:18;11.20;;;9.10;;
15096;SDS011;7649;52.084;7.478;2024-01-06T10:07:48;12.27;;;10.27;;
15096;SDS011;7649;52.084;7.478;2024-01-06T10:10:16;17.90;;;12.33;;
15096;SDS011;7649;52.084;7.478;2024-01-06T10:12:46;12.37;;;9.83;;
15096;SDS011;7649;52.084;7.478;2024-01-06T10:15:14;11.77;;;9.77;;
15096;SDS011;7649;52.084;7.478;2024-01-06T10:17:42;13.30;;;9.10;;
15096;SDS011;7649;52.084;7.478;2024-01-06T10:20:12;10.13;;;9.10;;
15096;SDS011;7649;52.084;7.478;2024-01-06T10:22:41;12.37;;;9.73;;
15096;SDS011;7649;52.084;7.478;2024-01-06T10:25:12;12.70;;;9.67;;
15096;SDS011;7649;52.084;7.478;2024-01-06T10:27:41;10.30;;;8.57;;
15096;SDS011;7649;52.084;7.478;2024-01-06T10:30:10;12.97;;;8.87;;
15096;SDS011;7649;52.084;7.478;2024-01-06T10:32:40;9.87;;;8.00;;
15096;SDS011;7649;52.084;7.478;2024-01-06T10:35:09;9.97;;;8.27;;
15096;SDS011;7649;52.084;7.478;2024-01-06T10:37:38;9.13;;;8.10;;
15096;SDS011;7649;52.084;7.478;2024-01-06T10:40:12;8.53;;;7.70;;
15096;SDS011;7649;52.084;7.478;2024-01-06T10:42:40;9.63;;;8.30;;
15096;SDS011;7649;52.084;7.478;2024-01-06T10:45:09;9.83;;;8.07;;
15096;SDS011;7649;52.084;7.478;2024-01-06T10:47:38;8.83;;;8.00;;
15096;SDS011;7649;52.084;7.478;2024-01-06T10:50:07;10.33;;;8.77;;
15096;SDS011;7649;52.084;7.478;2024-01-06T10:52:36;9.90;;;8.20;;
15096;SDS011;7649;52.084;7.478;2024-01-06T10:55:06;9.77;;;8.33;;
15096;SDS011;7649;52.084;7.478;2024-01-06T10:57:35;9.60;;;8.47;;
15096;SDS011;7649;52.084;7.478;2024-01-06T11:00:07;9.20;;;7.90;;
15096;SDS011;7649;52.084;7.478;2024-01-06T11:02:37;9.07;;;8.03;;
15096;SDS011;7649;52.084;7.478;2024-01-06T11:05:08;10.43;;;9.30;;
15096;SDS011;7649;52.084;7.478;2024-01-06T11:07:37;12.40;;;8.90;;
15096;SDS011;7649;52.084;7.478;2024-01-06T11:10:09;12.27;;;9.87;;
15096;SDS011;7649;52.084;7.478;2024-01-06T11:12:40;10.00;;;8.90;;
15096;SDS011;7649;52.084;7.478;2024-01-06T11:15:09;10.53;;;9.43;;
15096;SDS011;7649;52.084;7.478;2024-01-06T11:17:48;9.83;;;8.83;;
15096;SDS011;7649;52.084;7.478;2024-01-06T11:20:19;9.57;;;8.57;;
15096;SDS011;7649;52.084;7.478;2024-01-06T11:22:48;10.73;;;8.10;;
15096;SDS011;7649;52.084;7.478;2024-01-06T11:25:17;10.53;;;8.60;;
15096;SDS011;7649;52.084;7.478;2024-01-06T11:27:48;9.73;;;8.33;;
15096;SDS011;7649;52.084;7.478;2024-01-06T11:30:20;11.27;;;8.83;;
15096;SDS011;7649;52.084;7.478;2024-01-06T11:32:50;9.70;;;8.27;;
15096;SDS011;7649;52.084;7.478;2024-01-06T11:35:20;9.77;;;8.43;;
15096;SDS011;7649;52.084;7.478;2024-01-06T11:37:51;10.43;;;9.33;;
15096;SDS011;7649;52.084;7.478;2024-01-06T11:40:22;9.40;;;8.43;;
15096;SDS011;7649;52.084;7.478;2024-01-06T11:42:58;9.90;;;8.90;;
15096;SDS011;7649;52.084;7.478;2024-01-06T11:45:27;9.47;;;8.57;;
15096;SDS011;7649;52.084;7.478;2024-01-06T11:47:56;9.13;;;8.23;;
15096;SDS011;7649;52.084;7.478;2024-01-06T11:50:25;10.43;;;8.80;;
15096;SDS011;7649;52.084;7.478;2024-01-06T11:52:54;8.30;;;7.50;;
15096;SDS011;7649;52.084;7.478;2024-01-06T11:55:21;10.13;;;9.03;;
15096;SDS011;7649;52.084;7.478;2024-01-06T11:57:50;11.47;;;8.93;;
15096;SDS011;7649;52.084;7.478;2024-01-06T12:00:20;10.70;;;9.33;;
15096;SDS011;7649;52.084;7.478;2024-01-06T12:02:48;10.07;;;8.80;;
15096;SDS011;7649;52.084;7.478;2024-01-06T12:05:18;10.33;;;8.70;;
15096;SDS011;7649;52.084;7.478;2024-01-06T12:07:53;10.27;;;8.90;;
15096;SDS011;7649;52.084;7.478;2024-01-06T12:10:21;9.10;;;8.20;;
15096;SDS011;7649;52.084;7.478;2024-01-06T12:12:56;12.50;;;8.73;;
15096;SDS011;7649;52.084;7.478;2024-01-06T12:15:28;11.87;;;9.87;;
15096;SDS011;7649;52.084;7.478;2024-01-06T12:17:57;11.60;;;9.97;;
15096;SDS011;7649;52.084;7.478;2024-01-06T12:20:26;11.50;;;9.53;;
15096;SDS011;7649;52.084;7.478;2024-01-06T12:22:55;10.83;;;9.47;;
15096;SDS011;7649;52.084;7.478;2024-01-06T12:25:25;12.53;;;11.13;;
15096;SDS011;7649;52.084;7.478;2024-01-06T12:27:55;10.87;;;9.03;;
15096;SDS011;7649;52.084;7.478;2024-01-06T12:30:23;9.10;;;8.20;;
15096;SDS011;7649;52.084;7.478;2024-01-06T12:32:54;9.70;;;8.60;;
15096;SDS011;7649;52.084;7.478;2024-01-06T12:35:22;11.57;;;8.67;;
15096;SDS011;7649;52.084;7.478;2024-01-06T12:37:51;9.40;;;8.17;;
15096;SDS011;7649;52.084;7.478;2024-01-06T12:40:20;10.50;;;8.90;;
15096;SDS011;7649;52.084;7.478;2024-01-06T12:42:49;8.90;;;7.40;;
15096;SDS011;7649;52.084;7.478;2024-01-06T12:45:17;9.83;;;8.03;;
15096;SDS011;7649;52.084;7.478;2024-01-06T12:47:46;9.00;;;7.40;;
15096;SDS011;7649;52.084;7.478;2024-01-06T12:50:16;8.97;;;8.07;;
15096;SDS011;7649;52.084;7.478;2024-01-06T12:52:44;7.90;;;7.10;;
15096;SDS011;7649;52.084;7.478;2024-01-06T12:55:13;8.60;;;7.20;;
15096;SDS011;7649;52.084;7.478;2024-01-06T12:57:42;9.80;;;8.90;;
15096;SDS011;7649;52.084;7.478;2024-01-06T13:00:11;9.27;;;8.20;;
15096;SDS011;7649;52.084;7.478;2024-01-06T13:02:41;9.07;;;8.10;;
15096;SDS011;7649;52.084;7.478;2024-01-06T13:05:10;9.80;;;8.77;;
15096;SDS011;7649;52.084;7.478;2024-01-06T13:07:40;9.97;;;8.77;;
15096;SDS011;7649;52.084;7.478;2024-01-06T13:10:08;10.23;;;9.20;;
15096;SDS011;7649;52.084;7.478;2024-01-06T13:12:36;9.97;;;8.90;;
15096;SDS011;7649;52.084;7.478;2024-01-06T13:15:05;9.63;;;8.63;;
15096;SDS011;7649;52.084;7.478;2024-01-06T13:17:37;9.03;;;8.10;;
15096;SDS011;7649;52.084;7.478;2024-01-06T13:20:06;9.07;;;8.10;;
15096;SDS011;7649;52.084;7.478;2024-01-06T13:22:35;9.03;;;8.03;;
15096;SDS011;7649;52.084;7.478;2024-01-06T13:25:05;8.63;;;7.77;;
15096;SDS011;7649;52.084;7.478;2024-01-06T13:27:35;8.83;;;7.93;;
15096;SDS011;7649;52.084;7.478;2024-01-06T13:30:04;10.33;;;8.23;;
15096;SDS011;7649;52.084;7.478;2024-01-06T13:32:33;9.37;;;8.27;;
15096;SDS011;7649;52.084;7.478;2024-01-06T13:35:02;9.03;;;8.10;;
15096;SDS011;7649;52.084;7.478;2024-01-06T13:37:32;9.37;;;8.37;;
15096;SDS011;7649;52.084;7.478;2024-01-06T13:40:00;10.10;;;8.87;;
15096;SDS011;7649;52.084;7.478;2024-01-06T13:42:31;9.20;;;8.30;;
15096;SDS011;7649;52.084;7.478;2024-01-06T13:44:59;10.63;;;9.40;;
15096;SDS011;7649;52.084;7.478;2024-01-06T13:47:30;11.43;;;9.80;;
15096;SDS011;7649;52.084;7.478;2024-01-06T13:49:58;11.80;;;10.27;;
15096;SDS011;7649;52.084;7.478;2024-01-06T13:52:26;10.87;;;9.60;;
15096;SDS011;7649;52.084;7.478;2024-01-06T13:54:55;13.00;;;10.70;;
15096;SDS011;7649;52.084;7.478;2024-01-06T13:57:23;12.13;;;10.17;;
15096;SDS011;7649;52.084;7.478;2024-01-06T13:59:53;12.53;;;9.87;;
15096;SDS011;7649;52.084;7.478;2024-01-06T14:02:23;11.83;;;10.00;;
15096;SDS011;7649;52.084;7.478;2024-01-06T14:04:52;12.13;;;10.87;;
15096;SDS011;7649;52.084;7.478;2024-01-06T14:07:20;11.90;;;10.70;;
15096;SDS011;7649;52.084;7.478;2024-01-06T14:09:49;14.60;;;12.80;;
15096;SDS011;7649;52.084;7.478;2024-01-06T14:12:17;14.23;;;11.83;;
15096;SDS011;7649;52.084;7.478;2024-01-06T14:14:46;14.40;;;12.27;;
15096;SDS011;7649;52.084;7.478;2024-01-06T14:17:16;14.87;;;12.40;;
15096;SDS011;7649;52.084;7.478;2024-01-06T14:19:45;14.73;;;12.20;;
15096;SDS011;7649;52.084;7.478;2024-01-06T14:22:14;14.73;;;12.03;;
15096;SDS011;7649;52.084;7.478;2024-01-06T14:24:43;17.77;;;13.80;;
15096;SDS011;7649;52.084;7.478;2024-01-06T14:27:12;17.90;;;13.93;;
15096;SDS011;7649;52.084;7.478;2024-01-06T14:29:40;17.50;;;14.77;;
15096;SDS011;7649;52.084;7.478;2024-01-06T14:32:08;16.80;;;14.57;;
15096;SDS011;7649;52.084;7.478;2024-01-06T14:34:39;17.30;;;14.90;;
15096;SDS011;7649;52.084;7.478;2024-01-06T14:37:07;18.20;;;15.60;;
15096;SDS011;7649;52.084;7.478;2024-01-06T14:39:36;19.07;;;15.17;;
15096;SDS011;7649;52.084;7.478;2024-01-06T14:42:05;20.30;;;17.10;;
15096;SDS011;7649;52.084;7.478;2024-01-06T14:44:33;22.33;;;17.23;;
15096;SDS011;7649;52.084;7.478;2024-01-06T14:47:02;21.50;;;17.67;;
15096;SDS011;7649;52.084;7.478;2024-01-06T14:49:30;20.83;;;16.80;;
15096;SDS011;7649;52.084;7.478;2024-01-06T14:52:01;23.50;;;17.93;;